Pagrindinis puslapis
METAR-TAF:

METAR-TAF

Oro uostai :

Barankabermecha, Kolumbija

platuma: 07-01N, ilguma: 073-48W, Aukštis: 126 m

Dabartinis oras

Ataskaita buvo paskelbta 28 minutes, ne 13:00 UTC
Vėjas 4 kt iš Pietų
Temperatūra 25°C
Drėgmė 94%
Slėgis 1013 hPa
Matomumas 10 km arba daugiau
Išsisklaidę debesys ne aukštis 1200 ft
Su prošvaistėmis ne aukštis 8000 ft
dulksna

METAR: SKEJ 281300Z 17004KT 9999 -DZ SCT012 BKN080 25/24 A2992

Laikas: 08:28 (13:28 UTC)


TAF: trūkstamas

Orai ataskaitas ir orų prognozės (METAR, TAF).

turimą stotys yra geltonos ir raudonos taškus žemėlapyje.

Perkelti pele per norėdami pamatyti stoties vardą.

Tada spustelėkite, norėdami matyti oro stebėjimo ir prognozės.

Norėdami pakeisti žemėlapį: spustelėkite ant žalios mygtukų su juodo kryžiaus žemyn,; žalią mygtuką su brūkšneliu, jei norite nutolinti; arba žalių rodyklių gretimoms žemėlapius.


METAR-TAF: